This is the latest recevied weather packets stored in our database for station/object PY2KO-3. If no packets are shown the sender has not sent any weather packets the latest 10 day(s).
| Time | Temp. | Humidity | Pressure | Rain* | Wind** | Luminosity | Snow |
|---|---|---|---|---|---|---|---|
| 1777783750 | 16.67° C | 87% | 1022.9 hPa | - | - | - | - |
| 1777782850 | 16.67° C | 85% | 1023 hPa | - | - | - | - |
| 1777781950 | 17.22° C | 86% | 1022.4 hPa | - | - | - | - |
| 1777781050 | 17.22° C | 85% | 1022.5 hPa | - | - | - | - |
| 1777780150 | 17.22° C | 84% | 1022.7 hPa | - | - | - | - |
| 1777779250 | 16.67° C | 84% | 1022.6 hPa | - | - | - | - |
| 1777778350 | 17.22° C | 83% | 1022.3 hPa | - | - | - | - |
| 1777777450 | 17.78° C | 83% | 1022.2 hPa | - | - | - | - |
| 1777776550 | 17.78° C | 83% | 1022.7 hPa | - | - | - | - |
| 1777775650 | 17.78° C | 83% | 1022.8 hPa | - | - | - | - |
| 1777774750 | 17.78° C | 83% | 1022.8 hPa | - | - | - | - |
| 1777773853 | 18.33° C | 82% | 1022.7 hPa | - | - | - | - |
| 1777772952 | 18.33° C | 81% | 1022.7 hPa | - | - | - | - |
| 1777772050 | 18.89° C | 80% | 1022.5 hPa | - | - | - | - |
| 1777771150 | 18.89° C | 79% | 1022.6 hPa | - | - | - | - |
| 1777770250 | 18.89° C | 79% | 1022.4 hPa | - | - | - | - |
| 1777769356 | 19.44° C | 76% | 1022.3 hPa | - | - | - | - |
| 1777768450 | 19.44° C | 75% | 1022.2 hPa | - | - | - | - |
| 1777767550 | 20° C | 72% | 1021.8 hPa | - | - | - | - |
| 1777766650 | 20.56° C | 70% | 1021.7 hPa | - | - | - | - |
| 1777765753 | 20.56° C | 70% | 1021.7 hPa | - | - | - | - |
| 1777764856 | 20.56° C | 68% | 1021.6 hPa | - | - | - | - |
| 1777763951 | 21.11° C | 65% | 1021.5 hPa | - | - | - | - |
| 1777763053 | 22.22° C | 59% | 1021 hPa | - | - | - | - |
| 1777762159 | 22.22° C | 58% | 1020.4 hPa | - | - | - | - |
* Rain since midnight (hover to see other rain measurements)
** Current wind speed in m/s (hover to see current wind gust speed)